createdAt,value
2017-02-01T00:00:02.851Z,93.47
2017-02-01T00:05:03.005Z,93.47
2017-02-01T00:10:02.827Z,93.37
2017-02-01T00:15:03.367Z,93.28
2017-02-01T00:20:02.940Z,93.18
2017-02-01T00:25:03.513Z,93.28
2017-02-01T00:30:02.937Z,93.28
2017-02-01T00:35:03.389Z,93.18
2017-02-01T00:40:02.874Z,93.18
2017-02-01T00:45:03.516Z,93.28
2017-02-01T00:50:03.395Z,93.18
2017-02-01T00:55:02.954Z,93.09
2017-02-01T01:00:02.670Z,93.09
2017-02-01T01:05:03.712Z,92.99
2017-02-01T01:10:03.450Z,92.8
2017-02-01T01:15:02.930Z,92.71
2017-02-01T01:20:03.391Z,92.61
2017-02-01T01:25:02.927Z,92.61
2017-02-01T01:30:03.472Z,92.61
2017-02-01T01:35:02.867Z,92.61
2017-02-01T01:40:03.355Z,92.71
2017-02-01T01:45:02.873Z,92.8
2017-02-01T01:50:03.533Z,92.8
2017-02-01T01:55:02.755Z,93.09
2017-02-01T02:00:03.447Z,93.37
2017-02-01T02:05:02.963Z,93.56
2017-02-01T02:10:02.646Z,93.85
2017-02-01T02:15:02.962Z,94.23
2017-02-01T02:20:03.426Z,94.7
2017-02-01T02:25:02.983Z,94.89
2017-02-01T02:30:03.440Z,95.07
2017-02-01T02:35:03.022Z,95.55
2017-02-01T02:40:03.491Z,95.97
2017-02-01T02:45:03.222Z,96.35
2017-02-01T02:50:03.625Z,96.83
2017-02-01T02:55:03.550Z,97.2
2017-02-01T03:00:02.966Z,97.96
2017-02-01T03:05:03.425Z,98.53
2017-02-01T03:10:02.941Z,98.91
2017-02-01T03:15:02.755Z,99.29
2017-02-01T03:20:03.327Z,99.66
2017-02-01T03:25:02.876Z,99.85
2017-02-01T03:30:03.356Z,99.99
2017-02-01T03:35:03.254Z,99.99
2017-02-01T03:40:02.743Z,99.99
2017-02-01T03:45:03.637Z,99.99
2017-02-01T03:50:03.203Z,99.99
2017-02-01T03:55:02.772Z,99.99
2017-02-01T04:00:03.126Z,99.99
2017-02-01T04:05:02.806Z,99.99
2017-02-01T04:10:02.651Z,99.99
2017-02-01T04:15:03.103Z,99.99
2017-02-01T04:20:02.790Z,99.99
2017-02-01T04:25:03.416Z,99.99
2017-02-01T04:30:03.095Z,99.99
2017-02-01T04:35:03.574Z,99.99
2017-02-01T04:40:03.503Z,99.99
2017-02-01T04:45:03.335Z,99.99
2017-02-01T04:50:03.218Z,99.99
2017-02-01T04:55:02.816Z,99.99
2017-02-01T05:00:03.311Z,99.99
2017-02-01T05:05:02.895Z,99.99
2017-02-01T05:10:03.383Z,99.99
2017-02-01T05:15:03.342Z,99.99
2017-02-01T05:20:02.628Z,99.99
2017-02-01T05:25:03.340Z,99.99
2017-02-01T05:30:03.501Z,99.99
2017-02-01T05:35:02.761Z,99.99
2017-02-01T05:40:03.461Z,99.99
2017-02-01T05:45:03.187Z,99.99
2017-02-01T05:50:03.634Z,99.99
2017-02-01T05:55:02.926Z,99.99
2017-02-01T06:00:03.356Z,99.99
2017-02-01T06:05:03.663Z,99.99
2017-02-01T06:10:03.525Z,99.99
2017-02-01T06:15:03.195Z,99.99
2017-02-01T06:20:03.604Z,99.99
2017-02-01T06:25:02.976Z,99.99
2017-02-01T06:30:02.807Z,99.99
2017-02-01T06:35:02.709Z,99.99
2017-02-01T06:40:03.190Z,99.99
2017-02-01T06:45:02.746Z,99.99
2017-02-01T06:50:03.320Z,99.99
2017-02-01T06:55:03.782Z,99.99
2017-02-01T07:00:03.359Z,99.99
2017-02-01T07:05:03.020Z,99.99
2017-02-01T07:10:02.693Z,99.99
2017-02-01T07:15:03.471Z,99.99
2017-02-01T07:20:02.818Z,99.99
2017-02-01T07:25:03.342Z,99.99
2017-02-01T07:30:03.668Z,99.99
2017-02-01T07:35:03.333Z,99.99
2017-02-01T07:40:03.160Z,99.99
2017-02-01T07:45:02.793Z,99.99
2017-02-01T07:50:03.414Z,99.99
2017-02-01T07:55:03.298Z,99.99
2017-02-01T08:00:02.907Z,99.99
2017-02-01T08:05:03.656Z,99.99
2017-02-01T08:10:03.084Z,99.99
2017-02-01T08:15:02.606Z,99.99
2017-02-01T08:20:03.173Z,99.99
2017-02-01T08:25:02.839Z,99.99
2017-02-01T08:30:03.362Z,99.99
2017-02-01T08:35:03.201Z,99.99
2017-02-01T08:40:03.699Z,99.99
2017-02-01T08:45:03.233Z,99.99
2017-02-01T08:50:03.682Z,99.99
2017-02-01T08:55:03.314Z,99.99
2017-02-01T09:00:02.765Z,99.99
2017-02-01T09:05:03.386Z,99.99
2017-02-01T09:10:02.910Z,99.99
2017-02-01T09:15:03.606Z,99.99
2017-02-01T09:20:03.146Z,99.99
2017-02-01T09:25:02.839Z,99.99
2017-02-01T09:30:03.534Z,99.99
2017-02-01T09:35:02.917Z,99.99
2017-02-01T09:40:03.291Z,99.99
2017-02-01T09:45:02.763Z,99.99
2017-02-01T09:50:03.322Z,99.99
2017-02-01T09:55:03.581Z,99.99
2017-02-01T10:00:03.460Z,99.99
2017-02-01T10:05:02.940Z,99.99
2017-02-01T10:10:03.514Z,99.99
2017-02-01T10:15:02.896Z,99.99
2017-02-01T10:20:02.818Z,99.99
2017-02-01T10:25:03.535Z,99.99
2017-02-01T10:30:02.921Z,99.99
2017-02-01T10:35:02.681Z,99.99
2017-02-01T10:40:03.572Z,99.99
2017-02-01T10:45:03.194Z,99.99
2017-02-01T10:50:02.846Z,99.99
2017-02-01T10:55:03.646Z,99.99
2017-02-01T11:00:03.676Z,99.99
2017-02-01T11:05:03.350Z,99.99
2017-02-01T11:10:02.901Z,97.94
2017-02-01T11:15:03.423Z,98.13
2017-02-01T11:20:03.244Z,92.46
2017-02-01T11:25:03.449Z,93.88
2017-02-01T11:30:02.711Z,90.74
2017-02-01T11:35:03.497Z,90.45
2017-02-01T11:40:02.938Z,91.69
2017-02-01T11:45:03.512Z,90.36
2017-02-01T11:50:03.124Z,87.93
2017-02-01T11:55:02.863Z,88.7
2017-02-01T12:00:03.562Z,87.6
2017-02-01T12:05:03.335Z,89.65
2017-02-01T12:10:02.950Z,91.94
2017-02-01T12:15:03.065Z,92.18
2017-02-01T12:20:02.953Z,92.51
2017-02-01T12:25:02.837Z,92.89
2017-02-01T12:30:02.926Z,93.04
2017-02-01T12:35:03.138Z,94.56
2017-02-01T12:40:03.464Z,95.94
2017-02-01T12:45:03.456Z,97.74
2017-02-01T12:50:03.357Z,99.21
2017-02-01T12:55:03.298Z,99.99
2017-02-01T13:00:02.869Z,99.99
2017-02-01T13:05:03.522Z,99.99
2017-02-01T13:10:03.284Z,99.99
2017-02-01T13:15:03.318Z,99.99
2017-02-01T13:20:02.871Z,99.99
2017-02-01T13:25:02.949Z,99.99
2017-02-01T13:30:03.616Z,99.99
2017-02-01T13:35:02.760Z,99.99
2017-02-01T13:40:03.526Z,99.99
2017-02-01T13:45:03.140Z,99.99
2017-02-01T13:50:03.401Z,99.99
2017-02-01T13:55:03.476Z,99.99
2017-02-01T14:00:02.994Z,99.99
2017-02-01T14:05:03.186Z,99.99
2017-02-01T14:10:03.718Z,99.99
2017-02-01T14:15:03.258Z,99.99
2017-02-01T14:20:03.006Z,99.99
2017-02-01T14:25:02.752Z,99.99
2017-02-01T14:30:03.139Z,99.99
2017-02-01T14:35:03.286Z,99.99
2017-02-01T14:40:03.165Z,99.99
2017-02-01T14:45:03.600Z,99.99
2017-02-01T14:50:03.262Z,99.99
2017-02-01T14:55:02.820Z,99.99
2017-02-01T15:00:02.733Z,99.99
2017-02-01T15:05:03.392Z,99.99
2017-02-01T15:10:03.464Z,99.99
2017-02-01T15:15:03.291Z,99.99
2017-02-01T15:20:03.544Z,99.99
2017-02-01T15:25:02.749Z,99.99
2017-02-01T15:30:03.584Z,99.99
2017-02-01T15:35:02.749Z,99.99
2017-02-01T15:40:02.952Z,99.99
2017-02-01T15:45:02.760Z,99.99
2017-02-01T15:50:03.230Z,99.99
2017-02-01T15:55:03.398Z,99.99
2017-02-01T16:00:03.343Z,99.99
2017-02-01T16:05:03.491Z,99.99
2017-02-01T16:10:02.840Z,99.99
2017-02-01T16:15:03.741Z,99.99
2017-02-01T16:20:03.282Z,99.99
2017-02-01T16:25:02.956Z,99.99
2017-02-01T16:30:03.630Z,99.99
2017-02-01T16:35:03.592Z,99.99
2017-02-01T16:40:03.242Z,99.99
2017-02-01T16:45:02.977Z,99.99
2017-02-01T16:50:03.440Z,99.99
2017-02-01T16:55:03.187Z,99.99
2017-02-01T17:00:02.748Z,99.99
2017-02-01T17:05:03.293Z,99.99
2017-02-01T17:10:02.908Z,99.99
2017-02-01T17:15:03.472Z,99.99
2017-02-01T17:20:03.012Z,99.99
2017-02-01T17:25:02.646Z,99.99
2017-02-01T17:30:03.317Z,99.99
2017-02-01T17:35:02.900Z,99.99
2017-02-01T17:40:03.259Z,99.99
2017-02-01T17:45:02.729Z,99.99
2017-02-01T17:50:03.438Z,99.99
2017-02-01T17:55:02.905Z,99.99
2017-02-01T18:00:03.439Z,99.99
2017-02-01T18:05:03.178Z,99.99
2017-02-01T18:10:02.851Z,99.99
2017-02-01T18:15:03.607Z,99.99
2017-02-01T18:20:03.316Z,99.99
2017-02-01T18:25:03.025Z,99.99
2017-02-01T18:30:03.584Z,99.99
2017-02-01T18:35:02.876Z,99.99
2017-02-01T18:40:03.295Z,99.99
2017-02-01T18:45:02.906Z,99.99
2017-02-01T18:50:03.262Z,99.99
2017-02-01T18:55:02.795Z,99.99
2017-02-01T19:00:03.328Z,99.99
2017-02-01T19:05:02.692Z,99.99
2017-02-01T19:10:03.029Z,99.99
2017-02-01T19:15:03.630Z,99.99
2017-02-01T19:20:03.182Z,99.99
2017-02-01T19:25:02.713Z,99.99
2017-02-01T19:30:03.348Z,99.99
2017-02-01T19:35:03.039Z,99.99
2017-02-01T19:40:03.818Z,99.99
2017-02-01T19:45:03.311Z,99.99
2017-02-01T19:50:02.630Z,99.99
2017-02-01T19:55:02.981Z,99.99
2017-02-01T20:00:03.434Z,99.99
2017-02-01T20:05:03.148Z,99.99
2017-02-01T20:10:02.777Z,99.99
2017-02-01T20:15:03.443Z,99.99
2017-02-01T20:20:02.977Z,99.99
2017-02-01T20:25:03.385Z,99.99
2017-02-01T20:30:02.777Z,99.99
2017-02-01T20:35:03.039Z,99.99
2017-02-01T20:40:03.634Z,99.99
2017-02-01T20:45:03.114Z,99.99
2017-02-01T20:50:03.732Z,99.99
2017-02-01T20:55:03.518Z,99.99
2017-02-01T21:00:02.795Z,99.99
2017-02-01T21:05:03.236Z,99.99
2017-02-01T21:10:02.753Z,99.99
2017-02-01T21:15:03.386Z,99.99
2017-02-01T21:20:02.950Z,99.99
2017-02-01T21:25:03.475Z,99.99
2017-02-01T21:30:02.691Z,99.99
2017-02-01T21:35:03.104Z,99.99
2017-02-01T21:40:03.442Z,99.99
2017-02-01T21:45:02.915Z,99.99
2017-02-01T21:50:03.412Z,99.99
2017-02-01T21:55:03.190Z,99.99
2017-02-01T22:00:02.774Z,99.99
2017-02-01T22:05:03.458Z,99.99
2017-02-01T22:10:02.926Z,99.99
2017-02-01T22:15:02.754Z,99.99
2017-02-01T22:20:03.168Z,99.99
2017-02-01T22:25:03.429Z,99.99
2017-02-01T22:30:02.959Z,99.99
2017-02-01T22:35:03.434Z,99.99
2017-02-01T22:40:02.905Z,99.99
2017-02-01T22:45:03.547Z,99.99
2017-02-01T22:50:03.079Z,99.99
2017-02-01T22:55:02.640Z,99.99
2017-02-01T23:00:03.127Z,99.99
2017-02-01T23:05:02.805Z,99.99
2017-02-01T23:10:03.177Z,99.99
2017-02-01T23:15:03.516Z,99.99
2017-02-01T23:20:03.117Z,99.99
2017-02-01T23:25:03.384Z,99.99
2017-02-01T23:30:02.854Z,99.99
2017-02-01T23:35:03.439Z,99.99
2017-02-01T23:40:02.956Z,99.99
2017-02-01T23:45:03.544Z,99.99
2017-02-01T23:50:03.125Z,99.99
2017-02-01T23:55:02.926Z,99.99
